createdAt,value
2018-07-26T00:01:30.986Z,18.37
2018-07-26T00:03:59.342Z,17.90
2018-07-26T00:06:27.756Z,19.48
2018-07-26T00:08:56.142Z,18.80
2018-07-26T00:11:24.529Z,19.10
2018-07-26T00:13:53.011Z,20.17
2018-07-26T00:16:21.386Z,23.52
2018-07-26T00:18:49.789Z,21.17
2018-07-26T00:21:18.216Z,16.95
2018-07-26T00:23:46.581Z,18.82
2018-07-26T00:26:16.183Z,21.05
2018-07-26T00:28:44.638Z,18.20
2018-07-26T00:31:13.080Z,21.87
2018-07-26T00:33:41.430Z,19.07
2018-07-26T00:36:09.849Z,23.05
2018-07-26T00:38:38.236Z,21.77
2018-07-26T00:41:06.596Z,25.05
2018-07-26T00:43:34.992Z,22.58
2018-07-26T00:46:03.389Z,21.48
2018-07-26T00:48:31.750Z,22.93
2018-07-26T00:51:00.159Z,24.47
2018-07-26T00:53:28.267Z,20.55
2018-07-26T00:55:56.618Z,18.23
2018-07-26T00:58:25.017Z,20.85
2018-07-26T01:00:53.401Z,17.92
2018-07-26T01:03:21.772Z,18.35
2018-07-26T01:05:50.200Z,19.12
2018-07-26T01:08:18.570Z,20.48
2018-07-26T01:10:46.976Z,19.42
2018-07-26T01:13:15.398Z,21.97
2018-07-26T01:15:43.759Z,19.70
2018-07-26T01:18:12.105Z,20.85
2018-07-26T01:20:40.578Z,20.48
2018-07-26T01:23:08.941Z,20.32
2018-07-26T01:25:37.337Z,21.10
2018-07-26T01:28:05.788Z,21.35
2018-07-26T01:30:34.160Z,20.27
2018-07-26T01:33:02.594Z,19.37
2018-07-26T01:35:31.006Z,20.10
2018-07-26T01:37:59.407Z,21.02
2018-07-26T01:40:27.769Z,20.92
2018-07-26T01:43:39.712Z,20.40
2018-07-26T01:46:08.079Z,23.25
2018-07-26T01:48:36.450Z,22.00
2018-07-26T01:51:04.843Z,22.47
2018-07-26T01:53:33.227Z,21.17
2018-07-26T01:56:01.601Z,23.67
2018-07-26T01:58:30.010Z,19.77
2018-07-26T02:00:58.121Z,19.53
2018-07-26T02:03:26.488Z,22.60
2018-07-26T02:06:07.323Z,20.70
2018-07-26T02:08:35.688Z,20.23
2018-07-26T02:11:04.148Z,18.65
2018-07-26T02:13:33.123Z,18.73
2018-07-26T02:16:01.526Z,21.70
2018-07-26T02:18:29.884Z,17.27
2018-07-26T02:20:58.315Z,18.47
2018-07-26T02:23:26.663Z,24.52
2018-07-26T02:25:55.283Z,18.55
2018-07-26T02:28:23.689Z,18.48
2018-07-26T02:30:52.047Z,18.95
2018-07-26T02:33:20.412Z,18.20
2018-07-26T02:35:48.821Z,20.75
2018-07-26T02:38:17.156Z,16.97
2018-07-26T02:40:45.581Z,17.27
2018-07-26T02:43:14.024Z,17.60
2018-07-26T02:45:42.409Z,19.35
2018-07-26T02:48:12.251Z,19.02
2018-07-26T02:50:40.668Z,18.75
2018-07-26T02:53:09.046Z,16.95
2018-07-26T02:55:40.559Z,18.70
2018-07-26T02:58:09.385Z,17.42
2018-07-26T03:00:37.772Z,19.60
2018-07-26T03:03:06.187Z,16.17
2018-07-26T03:05:34.349Z,18.32
2018-07-26T03:08:02.720Z,18.55
2018-07-26T03:10:31.088Z,17.37
2018-07-26T03:12:59.485Z,18.92
2018-07-26T03:15:27.841Z,18.37
2018-07-26T03:17:56.245Z,16.75
2018-07-26T03:20:24.681Z,21.77
2018-07-26T03:22:53.069Z,20.85
2018-07-26T03:25:21.450Z,19.93
2018-07-26T03:27:49.848Z,16.75
2018-07-26T03:30:18.228Z,21.23
2018-07-26T03:32:46.591Z,17.03
2018-07-26T03:35:15.005Z,19.00
2018-07-26T03:37:43.392Z,19.77
2018-07-26T03:40:11.807Z,17.25
2018-07-26T03:42:40.199Z,20.45
2018-07-26T03:45:08.587Z,16.52
2018-07-26T03:47:36.950Z,14.90
2018-07-26T03:50:06.316Z,15.43
2018-07-26T03:52:34.453Z,22.40
2018-07-26T03:55:02.776Z,16.35
2018-07-26T03:57:31.156Z,15.68
2018-07-26T03:59:59.507Z,19.32
2018-07-26T04:02:27.929Z,16.35
2018-07-26T04:04:56.392Z,15.68
2018-07-26T04:07:24.789Z,17.62
2018-07-26T04:09:53.160Z,18.70
2018-07-26T04:12:21.594Z,18.50
2018-07-26T04:14:49.965Z,16.93
2018-07-26T04:17:18.356Z,16.60
2018-07-26T04:19:46.786Z,20.30
2018-07-26T04:22:15.163Z,15.28
2018-07-26T04:24:43.691Z,16.20
2018-07-26T04:27:12.174Z,19.42
2018-07-26T04:29:40.584Z,19.37
2018-07-26T04:32:08.991Z,16.65
2018-07-26T04:34:37.331Z,15.55
2018-07-26T04:37:06.680Z,17.10
2018-07-26T04:39:35.113Z,16.32
2018-07-26T04:42:03.563Z,16.10
2018-07-26T04:44:31.987Z,21.23
2018-07-26T04:47:00.411Z,23.20
2018-07-26T04:49:28.835Z,17.98
2018-07-26T04:51:57.225Z,17.27
2018-07-26T04:54:25.310Z,18.17
2018-07-26T04:56:53.720Z,17.10
2018-07-26T04:59:30.336Z,17.37
2018-07-26T05:01:58.425Z,16.67
2018-07-26T05:04:26.837Z,15.20
2018-07-26T05:06:55.243Z,17.77
2018-07-26T05:09:23.660Z,17.50
2018-07-26T05:11:52.083Z,16.17
2018-07-26T05:14:20.868Z,17.55
2018-07-26T05:16:49.292Z,15.38
2018-07-26T05:19:17.423Z,18.95
2018-07-26T05:21:45.870Z,15.85
2018-07-26T05:24:14.254Z,16.95
2018-07-26T05:26:42.678Z,20.52
2018-07-26T05:29:11.066Z,19.07
2018-07-26T05:31:39.461Z,16.45
2018-07-26T05:34:07.601Z,18.17
2018-07-26T05:36:35.995Z,15.75
2018-07-26T05:39:08.416Z,20.13
2018-07-26T05:41:36.976Z,18.67
2018-07-26T05:44:05.193Z,15.83
2018-07-26T05:46:33.547Z,17.50
2018-07-26T05:49:01.960Z,17.48
2018-07-26T05:51:30.506Z,15.13
2018-07-26T05:53:58.643Z,17.73
2018-07-26T05:56:27.062Z,17.67
2018-07-26T05:58:55.237Z,17.10
2018-07-26T06:01:23.612Z,14.40
2018-07-26T06:03:51.777Z,15.70
2018-07-26T06:06:19.926Z,18.17
2018-07-26T06:08:48.359Z,14.38
2018-07-26T06:11:16.784Z,14.35
2018-07-26T06:13:45.195Z,16.80
2018-07-26T06:16:13.294Z,16.40
2018-07-26T06:18:41.723Z,17.65
2018-07-26T06:21:10.125Z,14.73
2018-07-26T06:23:38.214Z,20.90
2018-07-26T06:26:06.639Z,16.52
2018-07-26T06:28:35.022Z,14.25
2018-07-26T06:31:03.419Z,14.23
2018-07-26T06:33:31.644Z,16.23
2018-07-26T06:35:59.936Z,13.90
2018-07-26T06:38:28.300Z,17.35
2018-07-26T06:40:56.710Z,15.48
2018-07-26T06:43:25.089Z,13.48
2018-07-26T06:45:53.485Z,12.88
2018-07-26T06:48:21.882Z,15.70
2018-07-26T06:50:50.006Z,18.23
2018-07-26T06:53:18.383Z,13.75
2018-07-26T06:55:46.808Z,14.40
2018-07-26T06:58:14.893Z,13.28
2018-07-26T07:00:43.384Z,12.23
2018-07-26T07:03:11.772Z,12.82
2018-07-26T07:05:40.181Z,13.32
2018-07-26T07:08:08.594Z,14.13
2018-07-26T07:10:37.064Z,14.00
2018-07-26T07:13:05.412Z,11.55
2018-07-26T07:15:33.846Z,11.90
2018-07-26T07:18:02.243Z,11.73
2018-07-26T07:20:30.643Z,13.40
2018-07-26T07:22:58.987Z,12.78
2018-07-26T07:25:27.160Z,12.30
2018-07-26T07:27:55.253Z,10.93
2018-07-26T07:30:23.657Z,11.10
2018-07-26T07:32:52.098Z,10.40
2018-07-26T07:35:23.649Z,13.43
2018-07-26T07:37:51.752Z,10.25
2018-07-26T07:40:20.190Z,10.60
2018-07-26T07:42:48.298Z,11.48
2018-07-26T07:45:22.595Z,10.30
2018-07-26T07:47:51.027Z,10.72
2018-07-26T07:50:19.433Z,9.68
2018-07-26T07:52:47.606Z,11.37
2018-07-26T07:55:16.043Z,11.27
2018-07-26T07:57:44.457Z,11.07
2018-07-26T08:00:12.841Z,10.90
2018-07-26T08:02:41.298Z,7.97
2018-07-26T08:05:09.767Z,9.95
2018-07-26T08:07:37.812Z,8.08
2018-07-26T08:10:08.104Z,9.63
2018-07-26T08:12:36.239Z,9.30
2018-07-26T08:15:04.981Z,7.90
2018-07-26T08:17:33.442Z,8.38
2018-07-26T08:20:01.928Z,6.87
2018-07-26T08:22:30.065Z,6.30
2018-07-26T08:24:58.557Z,6.42
2018-07-26T08:27:27.010Z,5.22
2018-07-26T08:29:55.400Z,5.47
2018-07-26T08:32:23.889Z,6.22
2018-07-26T08:34:52.405Z,6.80
2018-07-26T08:37:20.527Z,6.22
2018-07-26T08:39:48.974Z,4.78
2018-07-26T08:42:20.405Z,5.47
2018-07-26T08:45:00.170Z,5.12
2018-07-26T08:47:28.577Z,11.15
2018-07-26T08:49:56.983Z,5.67
2018-07-26T08:52:25.399Z,4.58
2018-07-26T08:54:53.503Z,5.23
2018-07-26T08:57:21.928Z,5.33
2018-07-26T08:59:50.369Z,5.42
2018-07-26T09:02:18.770Z,5.80
2018-07-26T09:04:47.184Z,4.67
2018-07-26T09:07:15.318Z,5.40
2018-07-26T09:09:43.727Z,6.37
2018-07-26T09:12:12.143Z,6.63
2018-07-26T09:14:40.586Z,4.42
2018-07-26T09:17:09.002Z,4.97
2018-07-26T09:19:37.392Z,4.53
2018-07-26T09:22:05.894Z,5.03
2018-07-26T09:24:34.302Z,5.15
2018-07-26T09:27:02.689Z,8.45
2018-07-26T09:29:31.158Z,4.72
2018-07-26T09:31:59.546Z,6.33
2018-07-26T09:34:27.693Z,7.08
2018-07-26T09:36:56.124Z,6.65
2018-07-26T09:39:24.530Z,5.22
2018-07-26T09:41:52.949Z,4.58
2018-07-26T09:44:21.415Z,4.20
2018-07-26T09:46:49.860Z,4.55
2018-07-26T09:49:18.249Z,4.83
2018-07-26T09:51:46.690Z,4.80
2018-07-26T09:54:15.099Z,4.53
2018-07-26T09:56:43.536Z,4.65
2018-07-26T09:59:11.962Z,6.53
2018-07-26T10:01:41.053Z,6.28
2018-07-26T10:04:09.450Z,4.33
2018-07-26T10:06:37.875Z,4.33
2018-07-26T10:09:10.379Z,7.00
2018-07-26T10:11:38.788Z,6.13
2018-07-26T10:14:07.240Z,4.37
2018-07-26T10:16:35.335Z,4.20
2018-07-26T10:19:03.542Z,4.65
2018-07-26T10:21:31.986Z,4.00
2018-07-26T10:24:00.461Z,3.65
2018-07-26T10:26:28.852Z,4.67
2018-07-26T10:28:57.306Z,4.22
2018-07-26T10:31:25.705Z,4.28
2018-07-26T10:33:54.127Z,4.60
2018-07-26T10:36:22.715Z,4.58
2018-07-26T10:38:50.856Z,5.15
2018-07-26T10:41:19.236Z,10.82
2018-07-26T10:43:47.653Z,4.28
2018-07-26T10:46:16.085Z,4.17
2018-07-26T10:48:44.472Z,6.25
2018-07-26T10:51:12.899Z,3.80
2018-07-26T10:53:41.023Z,3.92
2018-07-26T10:56:09.433Z,4.60
2018-07-26T10:58:37.861Z,3.92
2018-07-26T11:01:06.760Z,4.72
2018-07-26T11:03:35.163Z,4.40
2018-07-26T11:06:03.597Z,5.20
2018-07-26T11:08:31.996Z,4.75
2018-07-26T11:11:00.498Z,4.90
2018-07-26T11:13:28.928Z,4.45
2018-07-26T11:15:59.697Z,4.40
2018-07-26T11:18:28.126Z,3.37
2018-07-26T11:20:56.552Z,3.98
2018-07-26T11:23:24.982Z,3.80
2018-07-26T11:25:53.465Z,5.20
2018-07-26T11:28:21.954Z,4.35
2018-07-26T11:30:50.350Z,5.27
2018-07-26T11:33:18.490Z,3.50
2018-07-26T11:35:46.943Z,4.00
2018-07-26T11:38:15.311Z,3.95
2018-07-26T11:40:43.718Z,3.60
2018-07-26T11:43:12.203Z,8.80
2018-07-26T11:45:40.605Z,4.40
2018-07-26T11:48:09.020Z,4.00
2018-07-26T11:50:37.430Z,6.15
2018-07-26T11:53:06.089Z,7.65
2018-07-26T11:55:34.488Z,4.28
2018-07-26T11:58:02.971Z,4.85
2018-07-26T12:00:31.348Z,4.70
2018-07-26T12:02:59.750Z,4.90
2018-07-26T12:05:28.204Z,4.87
2018-07-26T12:07:56.575Z,4.95
2018-07-26T12:10:24.983Z,5.30
2018-07-26T12:12:53.437Z,4.90
2018-07-26T12:15:21.846Z,5.00
2018-07-26T12:17:50.299Z,5.87
2018-07-26T12:20:18.429Z,5.27
2018-07-26T12:22:46.845Z,4.85
2018-07-26T12:25:15.258Z,5.27
2018-07-26T12:27:43.718Z,5.20
2018-07-26T12:30:12.121Z,6.55
2018-07-26T12:32:40.524Z,5.42
2018-07-26T12:35:08.689Z,6.33
2018-07-26T12:37:37.130Z,6.35
2018-07-26T12:40:08.560Z,7.67
2018-07-26T12:42:37.027Z,7.75
2018-07-26T12:45:05.846Z,8.28
2018-07-26T12:47:34.259Z,8.73
2018-07-26T12:50:02.760Z,9.78
2018-07-26T12:52:31.147Z,9.53
2018-07-26T12:54:59.608Z,10.28
2018-07-26T12:57:28.057Z,11.20
2018-07-26T12:59:56.489Z,11.12
2018-07-26T13:02:24.871Z,11.40
2018-07-26T13:04:53.077Z,11.45
2018-07-26T13:07:21.162Z,10.93
2018-07-26T13:09:49.562Z,10.90
2018-07-26T13:12:18.034Z,11.80
2018-07-26T13:14:46.512Z,12.60
2018-07-26T13:17:15.102Z,9.55
2018-07-26T13:19:43.534Z,10.38
2018-07-26T13:22:12.045Z,11.40
2018-07-26T13:24:40.458Z,10.48
2018-07-26T13:27:08.938Z,11.00
2018-07-26T13:29:37.336Z,12.07
2018-07-26T13:32:05.924Z,13.00
2018-07-26T13:34:34.099Z,12.82
2018-07-26T13:37:02.237Z,14.10
2018-07-26T13:39:30.669Z,13.95
2018-07-26T13:41:59.115Z,14.30
2018-07-26T13:44:27.284Z,14.38
2018-07-26T13:46:55.656Z,14.43
2018-07-26T13:49:24.132Z,14.75
2018-07-26T13:51:52.586Z,14.55
2018-07-26T13:54:20.984Z,12.53
2018-07-26T13:56:49.452Z,11.78
2018-07-26T13:59:17.855Z,12.98
2018-07-26T14:01:46.279Z,13.60
2018-07-26T14:04:14.758Z,13.90
2018-07-26T14:06:43.161Z,14.47
2018-07-26T14:09:12.312Z,14.87
2018-07-26T14:11:41.187Z,12.82
2018-07-26T14:14:09.653Z,13.32
2018-07-26T14:16:38.116Z,13.55
2018-07-26T14:19:07.014Z,14.35
2018-07-26T14:21:35.445Z,14.10
2018-07-26T14:24:21.603Z,15.13
2018-07-26T14:26:50.254Z,15.55
2018-07-26T14:29:18.667Z,16.97
2018-07-26T14:31:47.098Z,16.40
2018-07-26T14:34:15.571Z,17.12
2018-07-26T14:36:44.777Z,17.30
2018-07-26T14:39:13.604Z,16.62
2018-07-26T14:41:41.998Z,16.05
2018-07-26T14:44:10.956Z,16.70
2018-07-26T14:46:39.965Z,17.70
2018-07-26T14:49:08.368Z,18.12
2018-07-26T14:51:36.784Z,18.42
2018-07-26T14:54:05.248Z,17.65
2018-07-26T14:56:33.511Z,17.48
2018-07-26T14:59:01.931Z,14.93
2018-07-26T15:01:30.381Z,16.87
2018-07-26T15:03:58.653Z,15.70
2018-07-26T15:06:27.096Z,16.87
2018-07-26T15:08:55.537Z,14.75
2018-07-26T15:11:24.416Z,14.25
2018-07-26T15:13:55.707Z,15.60
2018-07-26T15:16:23.935Z,14.70
2018-07-26T15:18:52.057Z,12.75
2018-07-26T15:21:20.469Z,12.00
2018-07-26T15:23:50.795Z,10.35
2018-07-26T15:26:22.468Z,9.27
2018-07-26T15:28:50.807Z,8.98
2018-07-26T15:31:27.593Z,8.08
2018-07-26T15:33:56.009Z,8.20
2018-07-26T15:36:24.936Z,6.70
2018-07-26T15:38:54.907Z,6.47
2018-07-26T15:41:23.198Z,6.37
2018-07-26T15:43:52.785Z,7.20
2018-07-26T15:46:22.483Z,6.37
2018-07-26T15:48:53.721Z,6.08
2018-07-26T15:51:23.861Z,25.48
2018-07-26T15:53:53.768Z,6.22
2018-07-26T15:56:22.249Z,6.10
2018-07-26T15:58:52.420Z,5.28
2018-07-26T16:01:20.918Z,6.00
2018-07-26T16:03:52.363Z,6.15
2018-07-26T16:06:21.090Z,5.53
2018-07-26T16:08:50.491Z,5.70
2018-07-26T16:11:20.222Z,6.60
2018-07-26T16:13:48.379Z,8.90
2018-07-26T16:16:17.129Z,5.25
2018-07-26T16:18:47.684Z,6.08
2018-07-26T16:21:18.391Z,6.25
2018-07-26T16:23:46.830Z,6.28
2018-07-26T16:26:21.892Z,6.05
2018-07-26T16:28:49.604Z,5.92
2018-07-26T16:31:18.055Z,6.83
2018-07-26T16:33:46.454Z,6.15
2018-07-26T16:36:14.872Z,9.95
2018-07-26T16:38:43.022Z,8.05
2018-07-26T16:41:11.427Z,6.03
2018-07-26T16:43:39.856Z,5.60
2018-07-26T16:46:08.358Z,5.58
2018-07-26T16:48:36.809Z,5.75
2018-07-26T16:51:05.261Z,6.37
2018-07-26T16:53:33.706Z,6.05
2018-07-26T16:56:01.837Z,5.10
2018-07-26T16:58:30.433Z,5.28
2018-07-26T17:00:58.768Z,5.50
2018-07-26T17:03:27.205Z,5.10
2018-07-26T17:05:55.575Z,5.35
2018-07-26T17:08:24.055Z,5.42
2018-07-26T17:10:52.460Z,6.20
2018-07-26T17:13:20.883Z,6.15
2018-07-26T17:15:49.455Z,5.75
2018-07-26T17:18:17.884Z,5.92
2018-07-26T17:24:14.888Z,7.03
2018-07-26T17:26:43.080Z,5.65
2018-07-26T17:29:11.261Z,6.12
2018-07-26T17:31:39.645Z,5.67
2018-07-26T17:34:08.105Z,6.22
2018-07-26T20:57:05.287Z,15.00
2018-07-26T20:59:36.753Z,10.70
2018-07-26T21:05:09.371Z,5.85
2018-07-26T21:07:40.948Z,5.15
2018-07-26T21:10:10.578Z,5.03
2018-07-26T21:12:56.194Z,7.03
2018-07-26T21:15:24.573Z,5.93
2018-07-26T21:17:56.773Z,5.37
2018-07-26T21:20:25.260Z,7.50
2018-07-26T21:22:59.854Z,6.67
2018-07-26T21:25:28.434Z,6.12
2018-07-26T21:27:58.449Z,5.35
2018-07-26T21:31:09.142Z,5.20
2018-07-26T21:33:45.466Z,6.10
2018-07-26T21:36:20.404Z,5.37
2018-07-26T21:38:48.892Z,6.72
2018-07-26T21:41:17.647Z,5.72
2018-07-26T21:43:47.755Z,5.50
2018-07-26T21:46:17.225Z,5.58
2018-07-26T21:49:06.380Z,5.37
2018-07-26T21:51:34.928Z,5.95
2018-07-26T21:54:03.519Z,8.93
2018-07-26T21:57:08.592Z,6.25
2018-07-26T21:59:45.948Z,6.85
2018-07-26T22:02:14.679Z,6.55
2018-07-26T22:04:44.436Z,8.50
2018-07-26T22:07:23.980Z,6.95
2018-07-26T22:09:59.790Z,6.37
2018-07-26T22:12:28.484Z,6.58
2018-07-26T22:15:00.844Z,7.65
2018-07-26T22:17:29.439Z,7.05
2018-07-26T22:19:58.104Z,6.50
2018-07-26T22:22:26.689Z,6.85
2018-07-26T22:24:59.572Z,6.42
2018-07-26T22:27:28.003Z,7.30
2018-07-26T22:30:02.320Z,7.15
2018-07-26T22:32:30.542Z,7.22
2018-07-26T22:35:00.290Z,7.92
2018-07-26T22:37:30.197Z,8.10
2018-07-26T22:40:01.743Z,6.50
2018-07-26T22:43:08.868Z,7.72
2018-07-26T22:45:39.352Z,7.05
2018-07-26T22:48:08.233Z,7.20
2018-07-26T22:50:36.846Z,7.75
2018-07-26T22:53:06.885Z,7.87
2018-07-26T22:55:37.502Z,7.97
2018-07-26T22:58:05.970Z,7.85
2018-07-26T23:00:34.421Z,8.47
2018-07-26T23:03:02.959Z,8.08
2018-07-26T23:05:32.075Z,8.60
2018-07-26T23:08:00.224Z,8.35
2018-07-26T23:10:28.692Z,7.90
2018-07-26T23:13:01.661Z,7.97
2018-07-26T23:15:32.948Z,6.97
2018-07-26T23:18:02.380Z,9.75
2018-07-26T23:20:39.927Z,7.75
2018-07-26T23:23:12.391Z,8.50
2018-07-26T23:25:41.166Z,8.25
2018-07-26T23:28:09.960Z,8.20
2018-07-26T23:30:38.588Z,7.75
2018-07-26T23:33:07.007Z,9.95
2018-07-26T23:35:35.906Z,7.97
2018-07-26T23:38:05.476Z,8.30
2018-07-26T23:40:35.252Z,9.05
2018-07-26T23:43:04.624Z,8.40
2018-07-26T23:45:33.241Z,8.70
2018-07-26T23:48:03.032Z,8.75
2018-07-26T23:50:35.183Z,8.48
2018-07-26T23:53:03.629Z,8.15
2018-07-26T23:55:33.447Z,7.83
2018-07-26T23:58:01.699Z,7.83
